CPA729 VHHH-WMKK
Flight info
| Callsign | CPA729 |
|---|---|
| Flight time | 3h 25m |
| Altitude | 34000 |
| Route | PECAN V12 EPDOS L642 EPKAL/K0863F340 L642 ESPOB/N0463F340 L642 ENREP M763 TAXUL Y349 PULIP PULIP3J |
| Aircraft | A21N/M-SDE2E3FGHIRWXY/LB1 |
Departure
| Time | 2026-05-04 11:12 |
|---|---|
| Airport | Hong Kong International Airport (VHHH) |
Arrival
| Time | 2026-05-04 14:37 |
|---|---|
| Airport | Kuala Lumpur International Airport (WMKK) |
| Time | Latitude | Longitude | Altitude | Speed | Heading |
|---|---|---|---|---|---|
| 2026-05-04 10:11 | 22.31495 | 113.93127 | 38 ft | 0 kts | 161° |
| 2026-05-04 10:49 | 22.31507 | 113.93122 | 37 ft | 4 kts | 161° |
| 2026-05-04 10:49 | 22.31533 | 113.93113 | 37 ft | 4 kts | 161° |
| 2026-05-04 10:50 | 22.31554 | 113.93105 | 37 ft | 4 kts | 168° |
| 2026-05-04 10:51 | 22.31690 | 113.93185 | 37 ft | 2 kts | 161° |
| 2026-05-04 10:52 | 22.31692 | 113.93184 | 37 ft | 0 kts | 161° |
| 2026-05-04 10:56 | 22.31594 | 113.93130 | 37 ft | 9 kts | 249° |
| 2026-05-04 10:56 | 22.31570 | 113.93054 | 37 ft | 12 kts | 251° |
| 2026-05-04 10:56 | 22.31539 | 113.92957 | 37 ft | 15 kts | 251° |
| 2026-05-04 10:57 | 22.31502 | 113.92844 | 37 ft | 16 kts | 250° |
| 2026-05-04 10:57 | 22.31506 | 113.92724 | 37 ft | 17 kts | 297° |
| 2026-05-04 10:57 | 22.31559 | 113.92606 | 37 ft | 18 kts | 296° |
| 2026-05-04 10:57 | 22.31611 | 113.92492 | 37 ft | 6 kts | 296° |
| 2026-05-04 10:58 | 22.31632 | 113.92448 | 37 ft | 7 kts | 296° |
| 2026-05-04 10:58 | 22.31645 | 113.92392 | 38 ft | 8 kts | 266° |
| 2026-05-04 10:58 | 22.31634 | 113.92349 | 38 ft | 9 kts | 251° |
| 2026-05-04 10:58 | 22.31605 | 113.92253 | 38 ft | 11 kts | 252° |
| 2026-05-04 10:59 | 22.31579 | 113.92171 | 38 ft | 12 kts | 250° |
| 2026-05-04 10:59 | 22.31550 | 113.92081 | 38 ft | 13 kts | 250° |
| 2026-05-04 10:59 | 22.31518 | 113.91983 | 38 ft | 14 kts | 252° |
| 2026-05-04 10:59 | 22.31465 | 113.91894 | 38 ft | 15 kts | 193° |
| 2026-05-04 11:00 | 22.31394 | 113.91908 | 38 ft | 16 kts | 159° |
| 2026-05-04 11:01 | 22.30761 | 113.92142 | 37 ft | 6 kts | 162° |
| 2026-05-04 11:02 | 22.30719 | 113.92159 | 37 ft | 7 kts | 159° |
| 2026-05-04 11:02 | 22.30665 | 113.92155 | 37 ft | 10 kts | 218° |
| 2026-05-04 11:05 | 22.30045 | 113.90253 | 37 ft | 25 kts | 251° |
| 2026-05-04 11:06 | 22.29988 | 113.90075 | 37 ft | 26 kts | 251° |
| 2026-05-04 11:06 | 22.29937 | 113.89918 | 37 ft | 22 kts | 251° |
| 2026-05-04 11:06 | 22.29904 | 113.89816 | 37 ft | 12 kts | 251° |
| 2026-05-04 11:06 | 22.29862 | 113.89739 | 37 ft | 13 kts | 208° |
| 2026-05-04 11:08 | 22.29749 | 113.89763 | 37 ft | 0 kts | 161° |
| 2026-05-04 11:10 | 22.29815 | 113.90403 | 36 ft | 103 kts | 70° |
| 2026-05-04 11:12 | 22.32679 | 113.99308 | 3568 ft | 212 kts | 72° |
| 2026-05-04 11:12 | 22.33158 | 114.00793 | 4301 ft | 212 kts | 71° |
| 2026-05-04 11:12 | 22.33650 | 114.02325 | 4729 ft | 220 kts | 71° |
| 2026-05-04 11:12 | 22.33911 | 114.03966 | 4903 ft | 225 kts | 92° |
| 2026-05-04 11:13 | 22.33577 | 114.05622 | 4974 ft | 229 kts | 113° |
| 2026-05-04 11:13 | 22.32718 | 114.07064 | 4995 ft | 230 kts | 133° |
| 2026-05-04 11:13 | 22.31450 | 114.08196 | 5206 ft | 248 kts | 149° |
| 2026-05-04 11:13 | 22.29772 | 114.08865 | 5509 ft | 269 kts | 174° |
| 2026-05-04 11:14 | 22.27864 | 114.08917 | 6070 ft | 279 kts | 181° |
| 2026-05-04 11:14 | 22.25899 | 114.08867 | 6759 ft | 284 kts | 182° |
| 2026-05-04 11:14 | 22.23912 | 114.08830 | 7485 ft | 287 kts | 183° |
| 2026-05-04 11:16 | 22.09088 | 114.08784 | 11169 ft | 350 kts | 184° |
| 2026-05-04 11:16 | 22.06618 | 114.08789 | 11665 ft | 358 kts | 184° |
| 2026-05-04 11:16 | 22.04119 | 114.08788 | 12300 ft | 361 kts | 184° |
| 2026-05-04 11:17 | 22.01599 | 114.08786 | 12969 ft | 363 kts | 184° |
| 2026-05-04 11:17 | 21.99061 | 114.08790 | 13597 ft | 366 kts | 184° |
| 2026-05-04 11:19 | 21.80724 | 114.08808 | 17351 ft | 386 kts | 184° |
| 2026-05-04 11:19 | 21.78031 | 114.08807 | 17820 ft | 389 kts | 184° |
| 2026-05-04 11:19 | 21.75313 | 114.08808 | 18288 ft | 392 kts | 184° |
| 2026-05-04 11:19 | 21.72577 | 114.08809 | 18736 ft | 395 kts | 184° |
| 2026-05-04 11:20 | 21.69820 | 114.08811 | 19152 ft | 398 kts | 184° |
| 2026-05-04 11:20 | 21.67044 | 114.08817 | 19569 ft | 400 kts | 184° |
| 2026-05-04 11:20 | 21.64262 | 114.08680 | 19973 ft | 400 kts | 191° |
| 2026-05-04 11:20 | 21.61539 | 114.08110 | 20374 ft | 400 kts | 197° |
| 2026-05-04 11:22 | 21.42079 | 114.03333 | 23095 ft | 423 kts | 188° |
| 2026-05-04 11:22 | 21.39128 | 114.03122 | 23423 ft | 426 kts | 187° |
| 2026-05-04 11:23 | 21.36154 | 114.02942 | 23750 ft | 429 kts | 187° |
| 2026-05-04 11:23 | 21.33173 | 114.02757 | 24050 ft | 431 kts | 187° |
| 2026-05-04 11:24 | 21.15796 | 113.97836 | 25785 ft | 437 kts | 200° |
| 2026-05-04 11:25 | 21.12874 | 113.96909 | 26073 ft | 439 kts | 200° |
| 2026-05-04 11:25 | 21.09940 | 113.95982 | 26356 ft | 441 kts | 200° |
| 2026-05-04 11:25 | 21.06995 | 113.95049 | 26633 ft | 442 kts | 200° |
| 2026-05-04 11:26 | 21.01067 | 113.93172 | 27151 ft | 446 kts | 200° |
| 2026-05-04 11:27 | 20.80100 | 113.86550 | 29064 ft | 448 kts | 200° |
| 2026-05-04 11:28 | 20.77108 | 113.85606 | 29370 ft | 448 kts | 200° |
| 2026-05-04 11:28 | 20.74126 | 113.84667 | 29642 ft | 448 kts | 200° |
| 2026-05-04 11:28 | 20.71135 | 113.83725 | 29909 ft | 448 kts | 200° |
| 2026-05-04 11:28 | 20.68146 | 113.82785 | 30179 ft | 448 kts | 200° |
| 2026-05-04 11:29 | 20.65159 | 113.81845 | 30454 ft | 447 kts | 200° |
| 2026-05-04 11:29 | 20.62180 | 113.80907 | 30730 ft | 447 kts | 200° |
| 2026-05-04 11:29 | 20.59198 | 113.79969 | 30995 ft | 446 kts | 200° |
| 2026-05-04 11:29 | 20.56223 | 113.79031 | 31255 ft | 445 kts | 200° |
| 2026-05-04 11:31 | 20.35484 | 113.72519 | 32016 ft | 444 kts | 200° |
| 2026-05-04 11:33 | 20.14762 | 113.66033 | 32011 ft | 445 kts | 200° |
| 2026-05-04 11:33 | 20.08817 | 113.64175 | 32010 ft | 446 kts | 200° |
| 2026-05-04 11:34 | 20.02826 | 113.62305 | 32010 ft | 446 kts | 200° |
| 2026-05-04 11:34 | 19.96882 | 113.60449 | 32009 ft | 446 kts | 200° |
| 2026-05-04 11:35 | 19.90921 | 113.58594 | 32010 ft | 446 kts | 200° |
| 2026-05-04 11:35 | 19.84969 | 113.56738 | 32005 ft | 446 kts | 200° |
| 2026-05-04 11:36 | 19.79050 | 113.54895 | 32001 ft | 446 kts | 200° |
| 2026-05-04 11:36 | 19.73095 | 113.53045 | 32001 ft | 446 kts | 200° |
| 2026-05-04 11:37 | 19.67138 | 113.51190 | 32001 ft | 446 kts | 200° |
| 2026-05-04 11:37 | 19.61194 | 113.49342 | 31991 ft | 445 kts | 200° |
| 2026-05-04 11:38 | 19.55250 | 113.47493 | 31992 ft | 445 kts | 200° |
| 2026-05-04 11:38 | 19.49300 | 113.45644 | 31994 ft | 445 kts | 200° |
| 2026-05-04 11:39 | 19.43349 | 113.43801 | 31990 ft | 445 kts | 200° |
| 2026-05-04 11:41 | 19.22528 | 113.37364 | 31993 ft | 445 kts | 200° |
| 2026-05-04 11:41 | 19.16580 | 113.35528 | 31987 ft | 446 kts | 200° |
| 2026-05-04 11:42 | 19.10624 | 113.33689 | 31988 ft | 445 kts | 200° |
| 2026-05-04 11:42 | 19.05680 | 113.32165 | 31989 ft | 446 kts | 200° |
| 2026-05-04 11:43 | 18.99726 | 113.30331 | 31993 ft | 446 kts | 200° |
| 2026-05-04 11:43 | 18.93773 | 113.28501 | 31990 ft | 446 kts | 200° |
| 2026-05-04 11:44 | 18.87819 | 113.26669 | 31988 ft | 446 kts | 200° |
| 2026-05-04 11:44 | 18.81863 | 113.24839 | 31990 ft | 446 kts | 199° |
| 2026-05-04 11:45 | 18.75903 | 113.23008 | 31992 ft | 446 kts | 199° |
| 2026-05-04 11:45 | 18.69952 | 113.21180 | 31989 ft | 446 kts | 199° |
| 2026-05-04 11:46 | 18.63988 | 113.19352 | 31988 ft | 446 kts | 199° |
| 2026-05-04 11:46 | 18.58037 | 113.17526 | 31991 ft | 446 kts | 199° |
| 2026-05-04 11:47 | 18.52079 | 113.15700 | 31994 ft | 446 kts | 199° |
| 2026-05-04 11:47 | 18.46126 | 113.13877 | 31992 ft | 446 kts | 199° |
| 2026-05-04 11:48 | 18.40165 | 113.12052 | 31980 ft | 446 kts | 199° |
| 2026-05-04 11:48 | 18.34206 | 113.10234 | 31979 ft | 446 kts | 199° |
| 2026-05-04 11:49 | 18.28241 | 113.08415 | 31984 ft | 446 kts | 199° |
| 2026-05-04 11:49 | 18.22280 | 113.06597 | 31990 ft | 446 kts | 199° |
| 2026-05-04 11:50 | 18.16318 | 113.04776 | 31992 ft | 446 kts | 199° |
| 2026-05-04 11:50 | 18.10360 | 113.02959 | 31989 ft | 446 kts | 199° |
| 2026-05-04 11:51 | 18.04403 | 113.01144 | 31992 ft | 446 kts | 199° |
| 2026-05-04 11:51 | 17.98450 | 112.99330 | 31985 ft | 446 kts | 199° |
| 2026-05-04 11:52 | 17.92486 | 112.97517 | 31989 ft | 447 kts | 199° |
| 2026-05-04 11:52 | 17.86564 | 112.95561 | 31990 ft | 444 kts | 206° |
| 2026-05-04 11:52 | 17.83869 | 112.94004 | 31991 ft | 441 kts | 217° |
| 2026-05-04 11:53 | 17.81395 | 112.92107 | 31991 ft | 440 kts | 219° |
| 2026-05-04 11:53 | 17.76536 | 112.88207 | 31990 ft | 440 kts | 219° |
| 2026-05-04 11:55 | 17.56999 | 112.72853 | 31989 ft | 439 kts | 219° |
| 2026-05-04 11:56 | 17.52105 | 112.69019 | 31989 ft | 439 kts | 219° |
| 2026-05-04 11:56 | 17.47209 | 112.65181 | 31988 ft | 439 kts | 219° |
| 2026-05-04 11:57 | 17.42315 | 112.61351 | 31992 ft | 440 kts | 219° |
| 2026-05-04 11:57 | 17.37412 | 112.57516 | 31981 ft | 440 kts | 219° |
| 2026-05-04 11:58 | 17.32475 | 112.53655 | 31971 ft | 440 kts | 219° |
| 2026-05-04 11:58 | 17.27564 | 112.49820 | 31970 ft | 442 kts | 219° |
| 2026-05-04 11:59 | 17.22635 | 112.45972 | 31973 ft | 442 kts | 219° |
| 2026-05-04 11:59 | 17.17711 | 112.42133 | 31970 ft | 442 kts | 219° |
| 2026-05-04 12:00 | 17.12781 | 112.38291 | 31971 ft | 443 kts | 219° |
| 2026-05-04 12:00 | 17.07845 | 112.34439 | 31970 ft | 443 kts | 219° |
| 2026-05-04 12:01 | 17.02911 | 112.30596 | 31970 ft | 442 kts | 219° |
| 2026-05-04 12:02 | 16.85494 | 112.17329 | 31971 ft | 444 kts | 218° |
| 2026-05-04 12:03 | 16.80502 | 112.13549 | 31970 ft | 443 kts | 218° |
| 2026-05-04 12:03 | 16.75508 | 112.09769 | 31969 ft | 443 kts | 218° |
| 2026-05-04 12:04 | 16.70516 | 112.05990 | 31971 ft | 444 kts | 218° |
| 2026-05-04 12:04 | 16.65509 | 112.02205 | 31970 ft | 444 kts | 218° |
| 2026-05-04 12:05 | 16.60499 | 111.98420 | 31972 ft | 444 kts | 218° |
| 2026-05-04 12:05 | 16.55490 | 111.94636 | 31969 ft | 445 kts | 218° |
| 2026-05-04 12:06 | 16.50470 | 111.90847 | 31970 ft | 445 kts | 218° |
| 2026-05-04 12:06 | 16.45486 | 111.87089 | 31972 ft | 445 kts | 218° |
| 2026-05-04 12:07 | 16.40427 | 111.83282 | 31969 ft | 446 kts | 218° |
| 2026-05-04 12:07 | 16.35408 | 111.79503 | 31971 ft | 445 kts | 218° |
| 2026-05-04 12:08 | 16.30385 | 111.75724 | 31971 ft | 445 kts | 218° |
| 2026-05-04 12:08 | 16.25365 | 111.71948 | 31972 ft | 446 kts | 218° |
| 2026-05-04 12:09 | 16.20332 | 111.68165 | 31969 ft | 447 kts | 218° |
| 2026-05-04 12:09 | 16.15286 | 111.64375 | 31967 ft | 447 kts | 218° |
| 2026-05-04 12:10 | 16.10246 | 111.60587 | 31970 ft | 447 kts | 218° |
| 2026-05-04 12:10 | 16.05197 | 111.56797 | 31972 ft | 447 kts | 218° |
| 2026-05-04 12:11 | 16.00149 | 111.53010 | 31964 ft | 447 kts | 218° |
| 2026-05-04 12:11 | 15.95101 | 111.49227 | 31961 ft | 448 kts | 217° |
| 2026-05-04 12:12 | 15.90039 | 111.45440 | 31961 ft | 448 kts | 217° |
| 2026-05-04 12:12 | 15.84977 | 111.41652 | 31961 ft | 449 kts | 217° |
| 2026-05-04 12:14 | 15.64679 | 111.26491 | 31960 ft | 450 kts | 217° |
| 2026-05-04 12:15 | 15.59595 | 111.22700 | 31960 ft | 450 kts | 217° |
| 2026-05-04 12:15 | 15.54508 | 111.18909 | 31959 ft | 450 kts | 217° |
| 2026-05-04 12:16 | 15.49461 | 111.15148 | 31959 ft | 450 kts | 217° |
| 2026-05-04 12:16 | 15.44384 | 111.11367 | 31962 ft | 449 kts | 217° |
| 2026-05-04 12:17 | 15.39305 | 111.07587 | 31961 ft | 449 kts | 217° |
| 2026-05-04 12:17 | 15.34228 | 111.03804 | 31961 ft | 449 kts | 218° |
| 2026-05-04 12:18 | 15.29191 | 110.99964 | 31960 ft | 450 kts | 218° |
| 2026-05-04 12:18 | 15.24140 | 110.96121 | 31960 ft | 451 kts | 218° |
| 2026-05-04 12:19 | 15.19098 | 110.92285 | 31960 ft | 450 kts | 218° |
| 2026-05-04 12:19 | 15.14044 | 110.88448 | 31959 ft | 450 kts | 218° |
| 2026-05-04 12:20 | 15.08987 | 110.84613 | 31958 ft | 450 kts | 218° |
| 2026-05-04 12:20 | 15.03928 | 110.80778 | 31959 ft | 451 kts | 218° |
| 2026-05-04 12:21 | 14.98858 | 110.76939 | 31962 ft | 453 kts | 218° |
| 2026-05-04 12:21 | 14.93775 | 110.73092 | 31962 ft | 454 kts | 218° |
| 2026-05-04 12:22 | 14.88677 | 110.69236 | 31952 ft | 453 kts | 218° |
| 2026-05-04 12:22 | 14.83581 | 110.65382 | 31953 ft | 454 kts | 218° |
| 2026-05-04 12:23 | 14.78484 | 110.61532 | 31950 ft | 454 kts | 217° |
| 2026-05-04 12:23 | 14.73391 | 110.57685 | 31951 ft | 453 kts | 218° |
| 2026-05-04 12:24 | 14.68285 | 110.53832 | 31951 ft | 454 kts | 218° |
| 2026-05-04 12:24 | 14.64052 | 110.50639 | 31950 ft | 454 kts | 218° |
| 2026-05-04 12:25 | 14.58952 | 110.46790 | 31949 ft | 454 kts | 218° |
| 2026-05-04 12:25 | 14.53850 | 110.42943 | 31949 ft | 454 kts | 217° |
| 2026-05-04 12:26 | 14.48744 | 110.39101 | 31950 ft | 454 kts | 217° |
| 2026-05-04 12:26 | 14.43636 | 110.35255 | 31951 ft | 454 kts | 217° |
| 2026-05-04 12:27 | 14.38531 | 110.31416 | 31952 ft | 454 kts | 217° |
| 2026-05-04 12:27 | 14.33425 | 110.27573 | 31950 ft | 454 kts | 217° |
| 2026-05-04 12:28 | 14.28316 | 110.23730 | 31950 ft | 455 kts | 217° |
| 2026-05-04 12:28 | 14.23200 | 110.19893 | 31950 ft | 454 kts | 217° |
| 2026-05-04 12:29 | 14.18123 | 110.16085 | 31950 ft | 455 kts | 217° |
| 2026-05-04 12:29 | 14.13007 | 110.12246 | 31950 ft | 455 kts | 217° |
| 2026-05-04 12:30 | 14.07889 | 110.08409 | 31951 ft | 455 kts | 217° |
| 2026-05-04 12:30 | 14.02765 | 110.04575 | 31951 ft | 455 kts | 217° |
| 2026-05-04 12:31 | 13.97646 | 110.00744 | 31950 ft | 455 kts | 217° |
| 2026-05-04 12:31 | 13.92323 | 109.97202 | 31952 ft | 456 kts | 213° |
| 2026-05-04 12:32 | 13.84257 | 109.92018 | 31951 ft | 455 kts | 213° |
| 2026-05-04 12:33 | 13.78888 | 109.88565 | 31950 ft | 455 kts | 213° |
| 2026-05-04 12:33 | 13.73514 | 109.85108 | 31951 ft | 455 kts | 213° |
| 2026-05-04 12:34 | 13.68143 | 109.81658 | 31951 ft | 455 kts | 213° |
| 2026-05-04 12:34 | 13.62774 | 109.78210 | 31939 ft | 455 kts | 213° |
| 2026-05-04 12:35 | 13.57400 | 109.74761 | 31945 ft | 455 kts | 213° |
| 2026-05-04 12:35 | 13.52026 | 109.71316 | 31938 ft | 455 kts | 213° |
| 2026-05-04 12:36 | 13.46654 | 109.67871 | 31933 ft | 455 kts | 213° |
| 2026-05-04 12:36 | 13.41288 | 109.64430 | 31931 ft | 454 kts | 213° |
| 2026-05-04 12:37 | 13.35919 | 109.60993 | 31941 ft | 455 kts | 213° |
| 2026-05-04 12:37 | 13.30552 | 109.57557 | 31938 ft | 455 kts | 213° |
| 2026-05-04 12:38 | 13.25176 | 109.54124 | 31943 ft | 455 kts | 213° |
| 2026-05-04 12:38 | 13.19840 | 109.50708 | 31940 ft | 455 kts | 213° |
| 2026-05-04 12:39 | 13.14463 | 109.47271 | 31959 ft | 455 kts | 213° |
| 2026-05-04 12:39 | 13.09085 | 109.43835 | 31960 ft | 456 kts | 213° |
| 2026-05-04 12:40 | 13.03706 | 109.40399 | 31959 ft | 456 kts | 212° |
| 2026-05-04 12:40 | 12.98324 | 109.36966 | 31960 ft | 456 kts | 212° |
| 2026-05-04 12:41 | 12.92938 | 109.33534 | 31960 ft | 456 kts | 212° |
| 2026-05-04 12:41 | 12.87547 | 109.30097 | 31962 ft | 456 kts | 212° |
| 2026-05-04 12:42 | 12.82153 | 109.26660 | 31960 ft | 456 kts | 212° |
| 2026-05-04 12:42 | 12.76776 | 109.23237 | 31959 ft | 456 kts | 212° |
| 2026-05-04 12:43 | 12.71381 | 109.19803 | 31960 ft | 457 kts | 212° |
| 2026-05-04 12:43 | 12.65979 | 109.16366 | 31960 ft | 457 kts | 212° |
| 2026-05-04 12:44 | 12.60609 | 109.12951 | 31959 ft | 457 kts | 212° |
| 2026-05-04 12:44 | 12.55206 | 109.09523 | 31959 ft | 457 kts | 212° |
| 2026-05-04 12:45 | 12.49801 | 109.06093 | 31960 ft | 457 kts | 212° |
| 2026-05-04 12:45 | 12.44396 | 109.02665 | 31960 ft | 457 kts | 212° |
| 2026-05-04 12:46 | 12.38994 | 108.99242 | 31963 ft | 457 kts | 212° |
| 2026-05-04 12:46 | 12.33589 | 108.95817 | 31961 ft | 457 kts | 212° |
| 2026-05-04 12:47 | 12.28181 | 108.92393 | 31960 ft | 457 kts | 212° |
| 2026-05-04 12:47 | 12.22777 | 108.88971 | 31961 ft | 457 kts | 212° |
| 2026-05-04 12:48 | 12.17366 | 108.85546 | 31959 ft | 457 kts | 212° |
| 2026-05-04 12:48 | 12.11965 | 108.82131 | 31959 ft | 457 kts | 212° |
| 2026-05-04 12:49 | 12.06559 | 108.78715 | 31962 ft | 456 kts | 212° |
| 2026-05-04 12:49 | 12.01153 | 108.75299 | 31959 ft | 456 kts | 212° |
| 2026-05-04 12:50 | 11.95751 | 108.71889 | 31959 ft | 458 kts | 212° |
| 2026-05-04 12:50 | 11.90329 | 108.68467 | 31961 ft | 458 kts | 212° |
| 2026-05-04 12:51 | 11.84912 | 108.65052 | 31960 ft | 457 kts | 212° |
| 2026-05-04 12:51 | 11.79494 | 108.61633 | 31961 ft | 458 kts | 212° |
| 2026-05-04 12:52 | 11.74076 | 108.58220 | 31960 ft | 457 kts | 212° |
| 2026-05-04 12:52 | 11.68659 | 108.54808 | 31955 ft | 457 kts | 211° |
| 2026-05-04 12:53 | 11.63245 | 108.51400 | 31952 ft | 458 kts | 212° |
| 2026-05-04 12:53 | 11.57826 | 108.47991 | 31951 ft | 458 kts | 211° |
| 2026-05-04 12:54 | 11.52404 | 108.44581 | 31950 ft | 458 kts | 212° |
| 2026-05-04 12:54 | 11.46984 | 108.41172 | 31943 ft | 458 kts | 211° |
| 2026-05-04 12:55 | 11.41562 | 108.37766 | 31938 ft | 458 kts | 211° |
| 2026-05-04 12:55 | 11.36138 | 108.34358 | 31945 ft | 458 kts | 211° |
| 2026-05-04 12:56 | 11.30704 | 108.30952 | 31935 ft | 458 kts | 211° |
| 2026-05-04 12:56 | 11.25272 | 108.27540 | 31931 ft | 459 kts | 211° |
| 2026-05-04 12:57 | 11.19841 | 108.24129 | 31929 ft | 459 kts | 211° |
| 2026-05-04 12:57 | 11.14399 | 108.20722 | 31933 ft | 459 kts | 211° |
| 2026-05-04 12:58 | 11.08988 | 108.17330 | 31927 ft | 460 kts | 211° |
| 2026-05-04 12:58 | 11.03543 | 108.13923 | 31919 ft | 460 kts | 211° |
| 2026-05-04 12:59 | 10.98094 | 108.10513 | 31911 ft | 460 kts | 211° |
| 2026-05-04 12:59 | 10.92650 | 108.07089 | 31910 ft | 461 kts | 212° |
| 2026-05-04 13:00 | 10.87274 | 108.03527 | 31909 ft | 461 kts | 212° |
| 2026-05-04 13:00 | 10.81901 | 107.99955 | 31910 ft | 461 kts | 212° |
| 2026-05-04 13:01 | 10.76532 | 107.96388 | 31900 ft | 460 kts | 212° |
| 2026-05-04 13:01 | 10.71172 | 107.92831 | 31896 ft | 460 kts | 212° |
| 2026-05-04 13:02 | 10.65806 | 107.89271 | 31890 ft | 461 kts | 212° |
| 2026-05-04 13:02 | 10.60435 | 107.85709 | 31892 ft | 462 kts | 212° |
| 2026-05-04 13:03 | 10.55055 | 107.82140 | 31889 ft | 462 kts | 212° |
| 2026-05-04 13:03 | 10.49666 | 107.78568 | 31890 ft | 462 kts | 212° |
| 2026-05-04 13:04 | 10.44279 | 107.75000 | 31891 ft | 462 kts | 212° |
| 2026-05-04 13:04 | 10.38878 | 107.71440 | 31889 ft | 463 kts | 212° |
| 2026-05-04 13:05 | 10.33483 | 107.67889 | 31882 ft | 463 kts | 212° |
| 2026-05-04 13:05 | 10.28086 | 107.64332 | 31881 ft | 463 kts | 212° |
| 2026-05-04 13:06 | 10.22685 | 107.60774 | 31881 ft | 463 kts | 212° |
| 2026-05-04 13:06 | 10.17284 | 107.57219 | 31880 ft | 462 kts | 212° |
| 2026-05-04 13:07 | 10.11890 | 107.53668 | 31879 ft | 462 kts | 212° |
| 2026-05-04 13:07 | 10.06498 | 107.50112 | 31881 ft | 462 kts | 212° |
| 2026-05-04 13:08 | 10.01105 | 107.46555 | 31892 ft | 462 kts | 212° |
| 2026-05-04 13:08 | 9.95719 | 107.43001 | 31890 ft | 462 kts | 212° |
| 2026-05-04 13:09 | 9.90322 | 107.39444 | 31891 ft | 462 kts | 212° |
| 2026-05-04 13:09 | 9.84930 | 107.35893 | 31892 ft | 462 kts | 212° |
| 2026-05-04 13:10 | 9.79539 | 107.32342 | 31891 ft | 462 kts | 212° |
| 2026-05-04 13:10 | 9.74148 | 107.28795 | 31891 ft | 462 kts | 212° |
| 2026-05-04 13:11 | 9.68756 | 107.25246 | 31889 ft | 462 kts | 212° |
| 2026-05-04 13:11 | 9.63405 | 107.21727 | 31887 ft | 462 kts | 212° |
| 2026-05-04 13:12 | 9.58898 | 107.18763 | 31890 ft | 462 kts | 212° |
| 2026-05-04 13:12 | 9.52642 | 107.14652 | 31892 ft | 461 kts | 212° |
| 2026-05-04 13:13 | 9.47260 | 107.11116 | 31892 ft | 461 kts | 212° |
| 2026-05-04 13:13 | 9.42755 | 107.08156 | 31891 ft | 461 kts | 212° |
| 2026-05-04 13:14 | 9.37409 | 107.04649 | 31891 ft | 461 kts | 212° |
| 2026-05-04 13:14 | 9.32034 | 107.01123 | 31891 ft | 460 kts | 212° |
| 2026-05-04 13:15 | 9.26659 | 106.97597 | 31890 ft | 460 kts | 212° |
| 2026-05-04 13:15 | 9.21280 | 106.94069 | 31890 ft | 461 kts | 212° |
| 2026-05-04 13:16 | 9.15900 | 106.90541 | 31888 ft | 460 kts | 212° |
| 2026-05-04 13:16 | 9.10526 | 106.87019 | 31890 ft | 460 kts | 212° |
| 2026-05-04 13:17 | 9.05152 | 106.83497 | 31891 ft | 460 kts | 212° |
| 2026-05-04 13:17 | 8.99777 | 106.79975 | 31892 ft | 460 kts | 212° |
| 2026-05-04 13:18 | 8.94404 | 106.76462 | 31890 ft | 460 kts | 212° |
| 2026-05-04 13:18 | 8.89031 | 106.72946 | 31889 ft | 460 kts | 212° |
| 2026-05-04 13:19 | 8.83660 | 106.69432 | 31884 ft | 460 kts | 212° |
| 2026-05-04 13:19 | 8.78287 | 106.65918 | 31880 ft | 460 kts | 212° |
| 2026-05-04 13:20 | 8.72913 | 106.62420 | 31871 ft | 459 kts | 211° |
| 2026-05-04 13:20 | 8.67474 | 106.59037 | 31873 ft | 459 kts | 210° |
| 2026-05-04 13:21 | 8.62027 | 106.55656 | 31869 ft | 459 kts | 210° |
| 2026-05-04 13:21 | 8.56587 | 106.52277 | 31870 ft | 459 kts | 210° |
| 2026-05-04 13:22 | 8.51183 | 106.48923 | 31871 ft | 459 kts | 210° |
| 2026-05-04 13:22 | 8.45746 | 106.45549 | 31870 ft | 459 kts | 210° |
| 2026-05-04 13:23 | 8.40301 | 106.42170 | 31873 ft | 459 kts | 211° |
| 2026-05-04 13:23 | 8.34856 | 106.38793 | 31875 ft | 461 kts | 211° |
| 2026-05-04 13:24 | 8.29387 | 106.35404 | 31879 ft | 461 kts | 210° |
| 2026-05-04 13:24 | 8.23921 | 106.32019 | 31881 ft | 461 kts | 210° |
| 2026-05-04 13:25 | 8.15722 | 106.26937 | 31879 ft | 461 kts | 211° |
| 2026-05-04 13:25 | 8.10259 | 106.23551 | 31879 ft | 460 kts | 210° |
| 2026-05-04 13:26 | 8.04796 | 106.20170 | 31882 ft | 461 kts | 210° |
| 2026-05-04 13:26 | 7.99335 | 106.16792 | 31881 ft | 460 kts | 210° |
| 2026-05-04 13:27 | 7.93875 | 106.13414 | 31881 ft | 460 kts | 210° |
| 2026-05-04 13:27 | 7.88417 | 106.10042 | 31882 ft | 460 kts | 210° |
| 2026-05-04 13:28 | 7.82961 | 106.06666 | 31880 ft | 459 kts | 211° |
| 2026-05-04 13:28 | 7.77513 | 106.03297 | 31879 ft | 460 kts | 210° |
| 2026-05-04 13:29 | 7.72058 | 105.99931 | 31879 ft | 460 kts | 210° |
| 2026-05-04 13:29 | 7.66602 | 105.96563 | 31879 ft | 460 kts | 210° |
| 2026-05-04 13:30 | 7.61150 | 105.93190 | 31880 ft | 460 kts | 211° |
| 2026-05-04 13:30 | 7.55699 | 105.89827 | 31879 ft | 459 kts | 210° |
| 2026-05-04 13:31 | 7.50253 | 105.86467 | 31881 ft | 459 kts | 210° |
| 2026-05-04 13:31 | 7.44804 | 105.83107 | 31881 ft | 459 kts | 210° |
| 2026-05-04 13:32 | 7.39360 | 105.79753 | 31880 ft | 459 kts | 210° |
| 2026-05-04 13:32 | 7.33915 | 105.76392 | 31882 ft | 459 kts | 210° |
| 2026-05-04 13:33 | 7.28510 | 105.73063 | 31879 ft | 458 kts | 210° |
| 2026-05-04 13:33 | 7.23033 | 105.69691 | 31880 ft | 458 kts | 210° |
| 2026-05-04 13:34 | 7.17593 | 105.66337 | 31880 ft | 458 kts | 210° |
| 2026-05-04 13:34 | 7.12149 | 105.62983 | 31879 ft | 458 kts | 210° |
| 2026-05-04 13:35 | 7.03996 | 105.57963 | 31880 ft | 458 kts | 210° |
| 2026-05-04 13:36 | 6.98561 | 105.54620 | 31881 ft | 458 kts | 210° |
| 2026-05-04 13:36 | 6.93135 | 105.51259 | 31882 ft | 458 kts | 210° |
| 2026-05-04 13:37 | 6.87704 | 105.47897 | 31882 ft | 458 kts | 210° |
| 2026-05-04 13:37 | 6.82285 | 105.44541 | 31881 ft | 457 kts | 210° |
| 2026-05-04 13:38 | 6.76858 | 105.41188 | 31880 ft | 457 kts | 210° |
| 2026-05-04 13:38 | 6.71437 | 105.37841 | 31881 ft | 458 kts | 210° |
| 2026-05-04 13:39 | 6.66010 | 105.34486 | 31881 ft | 457 kts | 210° |
| 2026-05-04 13:39 | 6.60592 | 105.31135 | 31879 ft | 457 kts | 210° |
| 2026-05-04 13:40 | 6.55173 | 105.27787 | 31879 ft | 457 kts | 210° |
| 2026-05-04 13:40 | 6.49748 | 105.24440 | 31878 ft | 457 kts | 210° |
| 2026-05-04 13:41 | 6.44335 | 105.21096 | 31870 ft | 457 kts | 210° |
| 2026-05-04 13:41 | 6.38917 | 105.17748 | 31872 ft | 457 kts | 210° |
| 2026-05-04 13:42 | 6.30787 | 105.12736 | 31877 ft | 457 kts | 210° |
| 2026-05-04 13:42 | 6.25366 | 105.09393 | 31871 ft | 457 kts | 210° |
| 2026-05-04 13:43 | 6.19948 | 105.06050 | 31873 ft | 457 kts | 210° |
| 2026-05-04 13:43 | 6.14529 | 105.02712 | 31867 ft | 457 kts | 210° |
| 2026-05-04 13:44 | 6.09105 | 104.99370 | 31873 ft | 458 kts | 210° |
| 2026-05-04 13:44 | 6.03707 | 104.96038 | 31872 ft | 458 kts | 210° |
| 2026-05-04 13:45 | 5.98271 | 104.92692 | 31870 ft | 458 kts | 210° |
| 2026-05-04 13:45 | 5.92838 | 104.89344 | 31873 ft | 458 kts | 210° |
| 2026-05-04 13:46 | 5.87401 | 104.85997 | 31875 ft | 458 kts | 210° |
| 2026-05-04 13:46 | 5.81969 | 104.82651 | 31867 ft | 457 kts | 210° |
| 2026-05-04 13:47 | 5.76542 | 104.79314 | 31870 ft | 458 kts | 210° |
| 2026-05-04 13:47 | 5.71119 | 104.75976 | 31868 ft | 458 kts | 211° |
| 2026-05-04 13:48 | 5.65693 | 104.72637 | 31869 ft | 457 kts | 210° |
| 2026-05-04 13:48 | 5.60267 | 104.69300 | 31870 ft | 458 kts | 210° |
| 2026-05-04 13:49 | 5.54838 | 104.65961 | 31872 ft | 458 kts | 210° |
| 2026-05-04 13:49 | 5.49411 | 104.62624 | 31871 ft | 457 kts | 210° |
| 2026-05-04 13:50 | 5.43989 | 104.59283 | 31873 ft | 457 kts | 210° |
| 2026-05-04 13:50 | 5.38560 | 104.55945 | 31868 ft | 458 kts | 210° |
| 2026-05-04 13:51 | 5.33126 | 104.52613 | 31872 ft | 457 kts | 210° |
| 2026-05-04 13:51 | 5.27707 | 104.49283 | 31878 ft | 457 kts | 210° |
| 2026-05-04 13:52 | 5.19571 | 104.44284 | 31879 ft | 457 kts | 210° |
| 2026-05-04 13:53 | 5.14147 | 104.40955 | 31880 ft | 457 kts | 210° |
| 2026-05-04 13:53 | 5.08721 | 104.37625 | 31879 ft | 457 kts | 210° |
| 2026-05-04 13:54 | 5.00582 | 104.32629 | 31880 ft | 457 kts | 210° |
| 2026-05-04 13:55 | 4.92439 | 104.27635 | 31880 ft | 457 kts | 211° |
| 2026-05-04 13:55 | 4.84216 | 104.22777 | 31880 ft | 457 kts | 208° |
| 2026-05-04 13:56 | 4.78649 | 104.19707 | 31882 ft | 457 kts | 208° |
| 2026-05-04 13:57 | 4.71245 | 104.15616 | 31882 ft | 457 kts | 208° |
| 2026-05-04 13:58 | 4.60112 | 104.09466 | 31879 ft | 457 kts | 208° |
| 2026-05-04 13:58 | 4.51756 | 104.04853 | 31882 ft | 457 kts | 208° |
| 2026-05-04 13:59 | 4.46187 | 104.01782 | 31873 ft | 457 kts | 208° |
| 2026-05-04 14:00 | 4.37815 | 103.97162 | 31869 ft | 458 kts | 208° |
| 2026-05-04 14:00 | 4.29441 | 103.92542 | 31866 ft | 458 kts | 208° |
| 2026-05-04 14:01 | 4.23863 | 103.89461 | 31871 ft | 458 kts | 208° |
| 2026-05-04 14:02 | 4.15492 | 103.84848 | 31867 ft | 458 kts | 208° |
| 2026-05-04 14:02 | 4.09907 | 103.81771 | 31861 ft | 458 kts | 208° |
| 2026-05-04 14:03 | 4.04326 | 103.78693 | 31860 ft | 458 kts | 208° |
| 2026-05-04 14:03 | 3.98750 | 103.75621 | 31860 ft | 458 kts | 208° |
| 2026-05-04 14:04 | 3.90394 | 103.70970 | 31862 ft | 459 kts | 212° |
| 2026-05-04 14:04 | 3.87871 | 103.69019 | 31858 ft | 460 kts | 223° |
| 2026-05-04 14:04 | 3.85823 | 103.66567 | 31855 ft | 461 kts | 236° |
| 2026-05-04 14:05 | 3.83582 | 103.60588 | 31857 ft | 463 kts | 262° |
| 2026-05-04 14:05 | 3.83257 | 103.57382 | 31855 ft | 463 kts | 265° |
| 2026-05-04 14:06 | 3.82729 | 103.50946 | 31854 ft | 464 kts | 264° |
| 2026-05-04 14:06 | 3.82140 | 103.44560 | 31850 ft | 464 kts | 264° |
| 2026-05-04 14:07 | 3.81529 | 103.38136 | 31859 ft | 464 kts | 264° |
| 2026-05-04 14:07 | 3.80919 | 103.31699 | 31847 ft | 464 kts | 264° |
| 2026-05-04 14:08 | 3.80309 | 103.25264 | 31849 ft | 464 kts | 264° |
| 2026-05-04 14:08 | 3.79697 | 103.18825 | 31855 ft | 464 kts | 264° |
| 2026-05-04 14:09 | 3.78779 | 103.09177 | 31854 ft | 464 kts | 264° |
| 2026-05-04 14:10 | 3.77857 | 102.99516 | 31846 ft | 465 kts | 264° |
| 2026-05-04 14:10 | 3.77243 | 102.93067 | 31850 ft | 465 kts | 264° |
| 2026-05-04 14:11 | 3.76630 | 102.86617 | 31845 ft | 465 kts | 264° |
| 2026-05-04 14:11 | 3.75706 | 102.76943 | 31843 ft | 465 kts | 264° |
| 2026-05-04 14:12 | 3.75085 | 102.70487 | 31853 ft | 466 kts | 264° |
| 2026-05-04 14:13 | 3.74155 | 102.60800 | 31851 ft | 466 kts | 264° |
| 2026-05-04 14:13 | 3.73543 | 102.54336 | 31864 ft | 466 kts | 264° |
| 2026-05-04 14:14 | 3.72928 | 102.47917 | 31535 ft | 462 kts | 264° |
| 2026-05-04 14:14 | 3.72309 | 102.41470 | 30976 ft | 467 kts | 264° |
| 2026-05-04 14:14 | 3.71999 | 102.38236 | 30726 ft | 468 kts | 264° |
| 2026-05-04 14:15 | 3.71379 | 102.31780 | 30230 ft | 469 kts | 264° |
| 2026-05-04 14:15 | 3.70733 | 102.25300 | 29724 ft | 466 kts | 261° |
| 2026-05-04 14:16 | 3.68161 | 102.19469 | 29210 ft | 460 kts | 230° |
| 2026-05-04 14:16 | 3.65884 | 102.17244 | 28866 ft | 456 kts | 216° |
| 2026-05-04 14:17 | 3.60231 | 102.14513 | 27744 ft | 446 kts | 198° |
| 2026-05-04 14:17 | 3.57317 | 102.13476 | 27143 ft | 444 kts | 198° |
| 2026-05-04 14:17 | 3.51559 | 102.11380 | 25903 ft | 441 kts | 199° |
| 2026-05-04 14:18 | 3.48689 | 102.10311 | 25311 ft | 439 kts | 199° |
| 2026-05-04 14:18 | 3.43013 | 102.08191 | 24119 ft | 434 kts | 199° |
| 2026-05-04 14:19 | 3.37338 | 102.06071 | 22920 ft | 435 kts | 199° |
| 2026-05-04 14:19 | 3.34512 | 102.05017 | 22347 ft | 432 kts | 199° |
| 2026-05-04 14:19 | 3.31710 | 102.03969 | 21745 ft | 428 kts | 199° |
| 2026-05-04 14:19 | 3.28931 | 102.02932 | 21156 ft | 424 kts | 199° |
| 2026-05-04 14:20 | 3.26179 | 102.01905 | 20580 ft | 421 kts | 199° |
| 2026-05-04 14:20 | 3.23449 | 102.00886 | 19991 ft | 417 kts | 199° |
| 2026-05-04 14:20 | 3.20711 | 101.99864 | 19436 ft | 413 kts | 199° |
| 2026-05-04 14:21 | 3.15399 | 101.97880 | 18412 ft | 407 kts | 199° |
| 2026-05-04 14:21 | 3.12757 | 101.96893 | 17916 ft | 404 kts | 199° |
| 2026-05-04 14:21 | 3.10138 | 101.95915 | 17445 ft | 400 kts | 199° |
| 2026-05-04 14:21 | 3.07551 | 101.94949 | 16960 ft | 394 kts | 199° |
| 2026-05-04 14:22 | 3.05002 | 101.93996 | 16465 ft | 388 kts | 199° |
| 2026-05-04 14:22 | 3.02488 | 101.93058 | 15987 ft | 383 kts | 199° |
| 2026-05-04 14:22 | 3.00011 | 101.92134 | 15529 ft | 377 kts | 199° |
| 2026-05-04 14:22 | 2.97572 | 101.91224 | 15084 ft | 371 kts | 199° |
| 2026-05-04 14:23 | 2.92783 | 101.89437 | 14182 ft | 366 kts | 199° |
| 2026-05-04 14:23 | 2.90397 | 101.88545 | 13741 ft | 366 kts | 199° |
| 2026-05-04 14:23 | 2.88010 | 101.87654 | 13299 ft | 365 kts | 199° |
| 2026-05-04 14:24 | 2.85707 | 101.86578 | 12840 ft | 365 kts | 213° |
| 2026-05-04 14:24 | 2.83899 | 101.84871 | 12514 ft | 353 kts | 234° |
| 2026-05-04 14:24 | 2.82647 | 101.82813 | 12253 ft | 339 kts | 240° |
| 2026-05-04 14:24 | 2.81343 | 101.80921 | 11982 ft | 325 kts | 223° |
| 2026-05-04 14:25 | 2.79493 | 101.79741 | 11702 ft | 310 kts | 197° |
| 2026-05-04 14:25 | 2.75620 | 101.80382 | 11234 ft | 282 kts | 138° |
| 2026-05-04 14:25 | 2.74216 | 101.81740 | 10846 ft | 281 kts | 134° |
| 2026-05-04 14:26 | 2.72796 | 101.83080 | 10415 ft | 281 kts | 138° |
| 2026-05-04 14:26 | 2.71285 | 101.84324 | 10036 ft | 280 kts | 141° |
| 2026-05-04 14:26 | 2.69733 | 101.85494 | 9668 ft | 279 kts | 143° |
| 2026-05-04 14:26 | 2.68166 | 101.86616 | 9338 ft | 275 kts | 144° |
| 2026-05-04 14:27 | 2.66601 | 101.87705 | 8985 ft | 273 kts | 145° |
| 2026-05-04 14:27 | 2.65036 | 101.88775 | 8579 ft | 272 kts | 145° |
| 2026-05-04 14:27 | 2.63474 | 101.89834 | 8119 ft | 270 kts | 145° |
| 2026-05-04 14:27 | 2.61923 | 101.90882 | 7627 ft | 268 kts | 146° |
| 2026-05-04 14:28 | 2.60383 | 101.91919 | 7155 ft | 266 kts | 146° |
| 2026-05-04 14:28 | 2.58856 | 101.92944 | 6996 ft | 264 kts | 146° |
| 2026-05-04 14:28 | 2.57374 | 101.93938 | 7042 ft | 246 kts | 146° |
| 2026-05-04 14:28 | 2.55965 | 101.94881 | 7093 ft | 243 kts | 146° |
| 2026-05-04 14:29 | 2.52822 | 101.95747 | 6800 ft | 241 kts | 196° |
| 2026-05-04 14:29 | 2.50401 | 101.93607 | 6349 ft | 238 kts | 238° |
| 2026-05-04 14:30 | 2.49825 | 101.92676 | 6270 ft | 237 kts | 239° |
| 2026-05-04 14:30 | 2.48884 | 101.90698 | 6268 ft | 236 kts | 264° |
| 2026-05-04 14:30 | 2.50228 | 101.87962 | 5749 ft | 227 kts | 328° |
| 2026-05-04 14:31 | 2.51598 | 101.87222 | 5451 ft | 222 kts | 334° |
| 2026-05-04 14:31 | 2.54293 | 101.85873 | 4858 ft | 211 kts | 331° |
| 2026-05-04 14:32 | 2.56683 | 101.84434 | 4377 ft | 196 kts | 327° |
| 2026-05-04 14:32 | 2.57821 | 101.83682 | 4110 ft | 196 kts | 326° |
| 2026-05-04 14:32 | 2.58948 | 101.82926 | 3835 ft | 195 kts | 326° |
| 2026-05-04 14:32 | 2.60073 | 101.82169 | 3552 ft | 194 kts | 326° |
| 2026-05-04 14:33 | 2.61193 | 101.81414 | 3320 ft | 194 kts | 326° |
| 2026-05-04 14:33 | 2.62303 | 101.80666 | 3055 ft | 190 kts | 326° |
| 2026-05-04 14:33 | 2.63374 | 101.79944 | 2793 ft | 181 kts | 326° |
| 2026-05-04 14:33 | 2.64385 | 101.79263 | 2534 ft | 171 kts | 326° |
| 2026-05-04 14:34 | 2.65368 | 101.78600 | 2310 ft | 170 kts | 326° |
| 2026-05-04 14:34 | 2.66345 | 101.77942 | 2094 ft | 169 kts | 326° |
| 2026-05-04 14:34 | 2.67318 | 101.77286 | 1890 ft | 168 kts | 326° |
| 2026-05-04 14:34 | 2.68285 | 101.76634 | 1670 ft | 168 kts | 326° |
| 2026-05-04 14:35 | 2.69246 | 101.75987 | 1429 ft | 161 kts | 326° |
| 2026-05-04 14:35 | 2.70106 | 101.75407 | 1200 ft | 142 kts | 326° |
| 2026-05-04 14:35 | 2.70922 | 101.74857 | 1019 ft | 141 kts | 326° |
| 2026-05-04 14:35 | 2.71733 | 101.74310 | 832 ft | 140 kts | 326° |
| 2026-05-04 14:36 | 2.72541 | 101.73765 | 661 ft | 140 kts | 326° |
| 2026-05-04 14:36 | 2.73347 | 101.73222 | 471 ft | 139 kts | 326° |
| 2026-05-04 14:36 | 2.74150 | 101.72680 | 287 ft | 139 kts | 326° |
| 2026-05-04 14:36 | 2.74951 | 101.72141 | 113 ft | 139 kts | 326° |
| 2026-05-04 14:37 | 2.75695 | 101.71639 | 80 ft | 111 kts | 326° |
| 2026-05-04 14:37 | 2.76166 | 101.71318 | 68 ft | 53 kts | 325° |
| 2026-05-04 14:37 | 2.76344 | 101.71195 | 74 ft | 28 kts | 326° |
| 2026-05-04 14:37 | 2.76497 | 101.71059 | 69 ft | 30 kts | 310° |
| 2026-05-04 14:38 | 2.76552 | 101.70968 | 70 ft | 15 kts | 297° |
| 2026-05-04 14:38 | 2.76584 | 101.70898 | 71 ft | 0 kts | 288° |
| 2026-05-04 14:38 | 2.76583 | 101.70894 | 64 ft | 1 kts | 269° |
| 2026-05-04 14:38 | 2.76578 | 101.70880 | 71 ft | 3 kts | 242° |
| 2026-05-04 14:39 | 2.76562 | 101.70861 | 70 ft | 4 kts | 217° |
| 2026-05-04 14:39 | 2.76527 | 101.70855 | 68 ft | 7 kts | 169° |
| 2026-05-04 14:39 | 2.76479 | 101.70882 | 71 ft | 9 kts | 142° |
| 2026-05-04 14:40 | 2.76346 | 101.70966 | 68 ft | 13 kts | 146° |
| 2026-05-04 14:40 | 2.76266 | 101.71021 | 64 ft | 15 kts | 152° |
| 2026-05-04 14:40 | 2.76157 | 101.71042 | 74 ft | 17 kts | 177° |
| 2026-05-04 14:40 | 2.76042 | 101.71061 | 75 ft | 17 kts | 152° |
| 2026-05-04 14:41 | 2.75952 | 101.71119 | 73 ft | 7 kts | 142° |
| 2026-05-04 14:41 | 2.75908 | 101.71149 | 76 ft | 9 kts | 147° |
| 2026-05-04 14:41 | 2.75800 | 101.71219 | 75 ft | 7 kts | 147° |
| 2026-05-04 14:42 | 2.75699 | 101.71288 | 74 ft | 11 kts | 146° |
| 2026-05-04 14:42 | 2.75632 | 101.71331 | 69 ft | 12 kts | 147° |
| 2026-05-04 14:42 | 2.75583 | 101.71364 | 77 ft | 13 kts | 146° |
| 2026-05-04 14:43 | 2.75503 | 101.71422 | 77 ft | 15 kts | 141° |
| 2026-05-04 14:43 | 2.75413 | 101.71487 | 74 ft | 17 kts | 147° |
| 2026-05-04 14:43 | 2.75323 | 101.71540 | 72 ft | 15 kts | 148° |
| 2026-05-04 14:43 | 2.75250 | 101.71589 | 77 ft | 11 kts | 144° |
| 2026-05-04 14:44 | 2.75230 | 101.71603 | 74 ft | 1 kts | 143° |
| 2026-05-04 14:44 | 2.75216 | 101.71614 | 77 ft | 4 kts | 143° |
| 2026-05-04 14:44 | 2.75184 | 101.71628 | 75 ft | 6 kts | 175° |
| 2026-05-04 14:44 | 2.75143 | 101.71603 | 74 ft | 8 kts | 230° |
| 2026-05-04 14:45 | 2.75106 | 101.71549 | 78 ft | 10 kts | 236° |
| 2026-05-04 14:45 | 2.75064 | 101.71489 | 74 ft | 9 kts | 234° |
| 2026-05-04 14:45 | 2.75025 | 101.71431 | 76 ft | 11 kts | 235° |
| 2026-05-04 14:45 | 2.75004 | 101.71405 | 75 ft | 6 kts | 225° |
| 2026-05-04 14:46 | 2.74982 | 101.71378 | 74 ft | 4 kts | 238° |
| 2026-05-04 14:46 | 2.74964 | 101.71350 | 74 ft | 6 kts | 237° |
| 2026-05-04 14:46 | 2.74962 | 101.71346 | 72 ft | 0 kts | 237° |
| 2026-05-04 14:46 | 2.74961 | 101.71346 | 72 ft | 0 kts | 236° |
| 2026-05-04 14:47 | 2.74955 | 101.71336 | 78 ft | 2 kts | 236° |
| 2026-05-04 14:47 | 2.74949 | 101.71327 | 78 ft | 0 kts | 236° |
| 2026-05-04 14:48 | 2.74462 | 101.71484 | 78 ft | 0 kts | 56° |